createdAt,value
2023-08-15T00:00:27.938Z,3.47
2023-08-15T00:03:14.263Z,3.45
2023-08-15T00:06:00.481Z,3.90
2023-08-15T00:08:47.017Z,3.83
2023-08-15T00:11:34.184Z,3.45
2023-08-15T00:14:20.191Z,3.28
2023-08-15T00:17:07.496Z,3.45
2023-08-15T00:19:56.052Z,3.35
2023-08-15T00:22:42.017Z,3.47
2023-08-15T00:25:28.429Z,3.17
2023-08-15T00:28:14.307Z,3.47
2023-08-15T00:31:00.081Z,3.15
2023-08-15T00:33:46.072Z,3.35
2023-08-15T00:36:32.111Z,3.20
2023-08-15T00:39:17.856Z,3.70
2023-08-15T00:42:03.426Z,3.85
2023-08-15T00:44:49.025Z,3.50
2023-08-15T00:47:35.101Z,3.95
2023-08-15T00:50:21.089Z,2.90
2023-08-15T00:53:08.178Z,3.20
2023-08-15T00:55:56.884Z,3.58
2023-08-15T00:58:43.369Z,4.07
2023-08-15T01:01:30.915Z,3.90
2023-08-15T01:04:16.730Z,3.50
2023-08-15T01:07:02.890Z,3.25
2023-08-15T01:09:48.895Z,3.55
2023-08-15T01:12:58.389Z,3.45
2023-08-15T01:15:51.122Z,3.13
2023-08-15T01:18:45.663Z,3.40
2023-08-15T01:21:41.244Z,3.70
2023-08-15T01:24:28.555Z,3.10
2023-08-15T01:27:14.443Z,3.45
2023-08-15T01:30:01.865Z,3.03
2023-08-15T01:33:01.347Z,3.70
2023-08-15T01:36:00.197Z,3.28
2023-08-15T01:38:51.821Z,2.97
2023-08-15T01:41:41.295Z,3.75
2023-08-15T01:44:28.861Z,3.70
2023-08-15T01:47:14.476Z,3.30
2023-08-15T01:49:59.975Z,3.35
2023-08-15T01:52:45.446Z,3.10
2023-08-15T01:55:31.275Z,3.33
2023-08-15T01:58:17.065Z,2.90
2023-08-15T02:01:04.531Z,3.05
2023-08-15T02:03:50.325Z,3.10
2023-08-15T02:06:36.265Z,3.40
2023-08-15T02:09:22.506Z,3.58
2023-08-15T02:12:08.948Z,3.47
2023-08-15T02:14:55.223Z,3.42
2023-08-15T02:17:41.215Z,3.40
2023-08-15T02:20:26.901Z,3.28
2023-08-15T02:23:14.114Z,3.53
2023-08-15T02:26:00.136Z,3.33
2023-08-15T02:28:45.942Z,3.28
2023-08-15T02:31:32.365Z,3.20
2023-08-15T02:34:19.496Z,2.97
2023-08-15T02:37:05.702Z,3.17
2023-08-15T02:39:52.371Z,3.40
2023-08-15T02:42:38.610Z,3.25
2023-08-15T02:45:24.758Z,2.85
2023-08-15T02:48:10.244Z,3.30
2023-08-15T02:50:56.065Z,3.38
2023-08-15T02:53:42.169Z,3.17
2023-08-15T02:56:27.768Z,3.50
2023-08-15T02:59:13.920Z,3.22
2023-08-15T03:01:59.974Z,3.00
2023-08-15T03:04:45.932Z,2.97
2023-08-15T03:07:32.190Z,3.10
2023-08-15T03:10:18.138Z,3.38
2023-08-15T03:13:04.661Z,3.13
2023-08-15T03:15:54.082Z,2.75
2023-08-15T03:18:40.213Z,2.72
2023-08-15T03:21:26.625Z,3.13
2023-08-15T03:24:15.084Z,3.40
2023-08-15T03:27:04.214Z,3.10
2023-08-15T03:32:37.051Z,3.17
2023-08-15T03:35:23.396Z,3.22
2023-08-15T03:38:11.361Z,3.20
2023-08-15T03:41:05.709Z,2.87
2023-08-15T03:43:53.327Z,3.35
2023-08-15T03:46:42.289Z,3.20
2023-08-15T03:49:28.111Z,3.63
2023-08-15T03:52:14.279Z,3.28
2023-08-15T03:54:59.964Z,3.30
2023-08-15T03:57:45.931Z,2.65
2023-08-15T04:00:33.694Z,3.13
2023-08-15T04:03:19.891Z,3.20
2023-08-15T04:06:06.466Z,3.20
2023-08-15T04:08:52.394Z,3.10
2023-08-15T04:11:38.188Z,3.40
2023-08-15T04:14:24.148Z,3.63
2023-08-15T04:17:10.074Z,3.05
2023-08-15T04:19:58.884Z,3.50
2023-08-15T04:22:45.091Z,3.30
2023-08-15T04:25:32.029Z,3.50
2023-08-15T04:28:18.115Z,3.20
2023-08-15T04:31:03.904Z,3.15
2023-08-15T04:33:49.838Z,3.33
2023-08-15T04:36:36.146Z,3.67
2023-08-15T04:39:24.516Z,3.75
2023-08-15T04:42:10.415Z,3.90
2023-08-15T04:44:56.017Z,4.00
2023-08-15T04:47:41.860Z,3.75
2023-08-15T04:50:28.476Z,3.28
2023-08-15T04:53:16.829Z,3.92
2023-08-15T04:56:02.993Z,3.63
2023-08-15T04:58:49.299Z,3.88
2023-08-15T05:01:35.333Z,3.90
2023-08-15T05:04:21.400Z,3.42
2023-08-15T05:07:09.336Z,3.50
2023-08-15T05:09:55.467Z,3.50
2023-08-15T05:12:41.240Z,3.83
2023-08-15T05:15:27.588Z,3.70
2023-08-15T05:18:17.036Z,3.85
2023-08-15T05:21:02.777Z,3.60
2023-08-15T05:23:48.622Z,3.80
2023-08-15T05:26:34.876Z,3.35
2023-08-15T05:29:22.000Z,3.97
2023-08-15T05:32:08.000Z,3.85
2023-08-15T05:34:53.616Z,4.30
2023-08-15T05:37:42.158Z,3.80
2023-08-15T05:40:31.242Z,4.20
2023-08-15T05:43:17.650Z,3.75
2023-08-15T05:46:03.569Z,3.45
2023-08-15T05:48:49.613Z,3.88
2023-08-15T05:51:36.995Z,3.65
2023-08-15T05:54:22.875Z,3.63
2023-08-15T05:57:08.799Z,3.60
2023-08-15T05:59:54.304Z,3.40
2023-08-15T06:02:42.747Z,3.85
2023-08-15T06:05:32.147Z,3.90
2023-08-15T06:08:17.887Z,3.38
2023-08-15T06:11:03.419Z,3.58
2023-08-15T06:13:49.934Z,4.13
2023-08-15T06:16:36.509Z,3.90
2023-08-15T06:19:24.421Z,3.90
2023-08-15T06:22:11.124Z,4.13
2023-08-15T06:24:57.063Z,4.13
2023-08-15T06:27:42.774Z,3.83
2023-08-15T06:30:29.663Z,3.63
2023-08-15T06:33:15.742Z,4.72
2023-08-15T06:36:01.298Z,4.20
2023-08-15T06:38:46.897Z,4.30
2023-08-15T06:41:32.803Z,4.00
2023-08-15T06:44:18.957Z,3.78
2023-08-15T06:47:06.305Z,3.97
2023-08-15T06:49:52.813Z,3.95
2023-08-15T06:52:39.474Z,4.20
2023-08-15T06:55:26.475Z,4.38
2023-08-15T06:58:12.374Z,3.97
2023-08-15T07:00:58.149Z,4.25
2023-08-15T07:03:47.615Z,3.67
2023-08-15T07:06:33.873Z,4.00
2023-08-15T07:09:19.825Z,4.15
2023-08-15T07:12:06.349Z,4.05
2023-08-15T07:14:52.136Z,3.70
2023-08-15T07:17:37.761Z,4.00
2023-08-15T07:20:23.895Z,3.90
2023-08-15T07:23:09.512Z,3.80
2023-08-15T07:25:55.610Z,3.70
2023-08-15T07:28:41.501Z,3.88
2023-08-15T07:31:27.407Z,4.00
2023-08-15T07:34:13.331Z,3.90
2023-08-15T07:36:59.140Z,4.22
2023-08-15T07:39:45.459Z,4.00
2023-08-15T07:42:31.533Z,3.72
2023-08-15T07:45:18.342Z,4.20
2023-08-15T07:48:05.251Z,4.55
2023-08-15T07:50:51.570Z,3.92
2023-08-15T07:53:37.750Z,3.80
2023-08-15T07:56:23.665Z,3.65
2023-08-15T07:59:09.429Z,4.07
2023-08-15T08:01:55.536Z,3.80
2023-08-15T08:04:44.278Z,4.10
2023-08-15T08:07:30.366Z,4.38
2023-08-15T08:10:16.050Z,4.30
2023-08-15T08:13:02.038Z,4.22
2023-08-15T08:15:48.016Z,4.82
2023-08-15T08:18:33.995Z,4.13
2023-08-15T08:21:19.614Z,4.78
2023-08-15T08:24:07.777Z,3.97
2023-08-15T08:26:53.858Z,3.95
2023-08-15T08:29:40.322Z,4.28
2023-08-15T08:32:26.157Z,4.18
2023-08-15T08:35:16.430Z,3.75
2023-08-15T08:38:02.516Z,3.95
2023-08-15T08:40:51.120Z,4.43
2023-08-15T08:43:37.598Z,4.25
2023-08-15T08:46:23.755Z,3.70
2023-08-15T08:49:10.882Z,4.32
2023-08-15T08:52:01.154Z,4.80
2023-08-15T08:57:44.024Z,3.90
2023-08-15T09:00:37.234Z,3.88
2023-08-15T09:03:23.738Z,3.80
2023-08-15T09:06:09.807Z,3.72
2023-08-15T09:08:58.509Z,4.10
2023-08-15T09:11:48.609Z,3.78
2023-08-15T09:14:42.078Z,3.47
2023-08-15T09:17:28.332Z,3.80
2023-08-15T09:20:19.591Z,3.80
2023-08-15T09:23:07.088Z,3.90
2023-08-15T09:25:57.151Z,3.33
2023-08-15T09:28:45.549Z,2.70
2023-08-15T09:31:31.639Z,3.53
2023-08-15T09:34:17.955Z,2.83
2023-08-15T09:37:04.834Z,3.03
2023-08-15T09:39:52.814Z,2.28
2023-08-15T09:42:38.866Z,2.40
2023-08-15T09:45:25.527Z,2.53
2023-08-15T09:48:14.548Z,2.38
2023-08-15T09:51:03.270Z,2.58
2023-08-15T09:53:49.266Z,2.17
2023-08-15T09:56:35.034Z,2.63
2023-08-15T09:59:22.000Z,2.17
2023-08-15T10:02:26.164Z,2.13
2023-08-15T10:05:16.368Z,2.58
2023-08-15T10:08:03.030Z,2.55
2023-08-15T10:10:54.047Z,2.70
2023-08-15T10:13:42.841Z,2.08
2023-08-15T10:16:29.353Z,2.58
2023-08-15T10:19:19.890Z,2.53
2023-08-15T10:22:05.420Z,2.25
2023-08-15T10:24:51.668Z,2.40
2023-08-15T10:27:38.549Z,2.33
2023-08-15T10:30:34.985Z,2.45
2023-08-15T10:33:27.743Z,2.65
2023-08-15T10:36:13.740Z,2.55
2023-08-15T10:39:10.983Z,2.22
2023-08-15T10:41:59.099Z,2.30
2023-08-15T10:45:00.641Z,2.22
2023-08-15T10:47:47.529Z,2.35
2023-08-15T10:50:34.577Z,2.30
2023-08-15T10:53:20.115Z,2.08
2023-08-15T10:56:10.758Z,2.08
2023-08-15T10:58:57.816Z,2.47
2023-08-15T11:01:48.275Z,2.70
2023-08-15T11:04:34.717Z,2.25
2023-08-15T11:07:29.955Z,2.30
2023-08-15T11:10:19.721Z,1.98
2023-08-15T11:13:05.617Z,2.58
2023-08-15T11:15:52.037Z,2.45
2023-08-15T11:18:38.672Z,2.20
2023-08-15T11:21:30.244Z,2.30
2023-08-15T11:24:18.453Z,2.22
2023-08-15T11:27:05.854Z,2.22
2023-08-15T11:30:00.052Z,2.50
2023-08-15T11:32:45.959Z,2.30
2023-08-15T11:35:32.006Z,2.20
2023-08-15T11:38:20.380Z,2.33
2023-08-15T11:41:06.734Z,2.30
2023-08-15T11:43:52.929Z,2.35
2023-08-15T11:46:53.252Z,2.33
2023-08-15T11:49:46.673Z,2.40
2023-08-15T11:52:32.719Z,2.53
2023-08-15T11:55:19.558Z,2.70
2023-08-15T11:58:34.023Z,2.17
2023-08-15T12:01:20.219Z,2.70
2023-08-15T12:04:06.432Z,2.53
2023-08-15T12:06:52.539Z,4.38
2023-08-15T12:09:39.010Z,3.85
2023-08-15T12:12:27.855Z,4.55
2023-08-15T12:15:16.995Z,4.43
2023-08-15T12:18:03.017Z,3.05
2023-08-15T12:20:48.997Z,3.22
2023-08-15T12:23:34.961Z,2.65
2023-08-15T12:26:20.948Z,2.90
2023-08-15T12:29:07.168Z,2.85
2023-08-15T12:31:55.105Z,3.00
2023-08-15T12:34:42.863Z,2.85
2023-08-15T12:37:28.718Z,2.45
2023-08-15T12:40:29.400Z,2.70
2023-08-15T12:43:17.200Z,3.00
2023-08-15T12:46:04.081Z,3.42
2023-08-15T12:48:50.246Z,3.50
2023-08-15T12:51:36.502Z,3.05
2023-08-15T12:54:24.428Z,4.03
2023-08-15T12:57:10.240Z,3.83
2023-08-15T12:59:56.359Z,3.08
2023-08-15T13:02:42.776Z,3.63
2023-08-15T13:05:28.935Z,3.45
2023-08-15T13:08:17.302Z,3.10
2023-08-15T13:11:03.292Z,3.30
2023-08-15T13:13:49.565Z,3.25
2023-08-15T13:16:36.272Z,3.75
2023-08-15T13:19:22.214Z,3.78
2023-08-15T13:22:08.333Z,3.55
2023-08-15T13:24:54.122Z,3.45
2023-08-15T13:27:41.489Z,4.15
2023-08-15T13:30:28.518Z,4.35
2023-08-15T13:33:15.494Z,3.47
2023-08-15T13:36:01.415Z,3.60
2023-08-15T13:38:47.360Z,3.80
2023-08-15T13:41:33.370Z,3.58
2023-08-15T13:44:19.779Z,3.50
2023-08-15T13:47:07.778Z,3.70
2023-08-15T13:49:53.848Z,3.30
2023-08-15T13:52:39.897Z,3.55
2023-08-15T13:55:27.460Z,3.20
2023-08-15T13:58:12.974Z,2.80
2023-08-15T14:01:01.729Z,2.50
2023-08-15T14:03:47.969Z,2.90
2023-08-15T14:06:34.133Z,3.30
2023-08-15T14:09:19.909Z,2.58
2023-08-15T14:12:09.191Z,2.20
2023-08-15T14:14:55.132Z,2.35
2023-08-15T14:17:41.661Z,2.47
2023-08-15T14:20:28.202Z,2.50
2023-08-15T14:23:14.524Z,2.20
2023-08-15T14:26:01.270Z,1.98
2023-08-15T14:28:47.076Z,2.30
2023-08-15T14:31:33.149Z,2.30
2023-08-15T14:34:19.438Z,2.17
2023-08-15T14:37:05.235Z,1.85
2023-08-15T14:39:51.043Z,1.85
2023-08-15T14:42:40.327Z,2.20
2023-08-15T14:45:26.164Z,2.33
2023-08-15T14:48:12.356Z,2.35
2023-08-15T14:50:58.381Z,2.30
2023-08-15T14:53:43.863Z,2.28
2023-08-15T14:56:30.313Z,2.35
2023-08-15T14:59:18.762Z,2.30
2023-08-15T15:02:04.889Z,2.33
2023-08-15T15:04:53.915Z,2.35
2023-08-15T15:07:40.275Z,2.70
2023-08-15T15:10:26.344Z,2.13
2023-08-15T15:13:12.195Z,2.15
2023-08-15T15:16:00.611Z,2.22
2023-08-15T15:18:46.778Z,2.33
2023-08-15T15:21:33.980Z,2.22
2023-08-15T15:24:46.638Z,2.10
2023-08-15T15:27:32.984Z,2.10
2023-08-15T15:30:19.341Z,2.30
2023-08-15T15:33:05.212Z,2.50
2023-08-15T15:35:50.934Z,2.00
2023-08-15T15:38:37.864Z,2.30
2023-08-15T15:41:23.847Z,2.00
2023-08-15T15:44:12.225Z,2.10
2023-08-15T15:46:58.040Z,2.97
2023-08-15T15:49:44.387Z,2.28
2023-08-15T15:52:33.553Z,1.90
2023-08-15T15:55:28.909Z,2.40
2023-08-15T15:58:18.930Z,2.35
2023-08-15T16:01:05.201Z,2.50
2023-08-15T16:03:51.365Z,2.20
2023-08-15T16:06:37.937Z,2.20
2023-08-15T16:09:31.076Z,3.63
2023-08-15T16:12:20.221Z,2.17
2023-08-15T16:15:10.239Z,2.03
2023-08-15T16:17:56.471Z,2.20
2023-08-15T16:20:42.247Z,2.30
2023-08-15T16:23:28.285Z,1.98
2023-08-15T16:26:14.600Z,2.38
2023-08-15T16:29:00.713Z,2.15
2023-08-15T16:31:46.660Z,2.08
2023-08-15T16:34:32.510Z,2.03
2023-08-15T16:37:19.518Z,2.03
2023-08-15T16:40:06.118Z,2.17
2023-08-15T16:43:19.075Z,2.00
2023-08-15T16:46:05.023Z,2.60
2023-08-15T16:48:51.416Z,2.78
2023-08-15T16:51:37.486Z,3.03
2023-08-15T16:54:23.511Z,3.17
2023-08-15T16:57:09.302Z,3.00
2023-08-15T16:59:54.743Z,3.17
2023-08-15T17:02:40.688Z,2.90
2023-08-15T17:05:27.572Z,3.10
2023-08-15T17:08:16.021Z,2.85
2023-08-15T17:11:01.680Z,3.03
2023-08-15T17:13:48.172Z,3.50
2023-08-15T17:16:34.318Z,3.25
2023-08-15T17:19:20.848Z,3.00
2023-08-15T17:22:08.020Z,3.58
2023-08-15T17:24:54.094Z,3.10
2023-08-15T17:27:40.335Z,3.70
2023-08-15T17:30:26.283Z,3.17
2023-08-15T17:33:11.882Z,3.40
2023-08-15T17:35:58.004Z,4.03
2023-08-15T17:38:44.032Z,3.00
2023-08-15T17:41:30.142Z,3.55
2023-08-15T17:44:16.587Z,3.35
2023-08-15T17:47:02.171Z,3.55
2023-08-15T17:49:47.943Z,3.60
2023-08-15T17:52:36.048Z,3.42
2023-08-15T17:55:21.842Z,4.05
2023-08-15T17:58:07.252Z,5.18
2023-08-15T18:00:53.524Z,3.78
2023-08-15T18:03:39.400Z,4.10
2023-08-15T18:06:27.728Z,3.65
2023-08-15T18:09:13.785Z,3.07
2023-08-15T18:12:02.747Z,3.50
2023-08-15T18:14:49.074Z,3.28
2023-08-15T18:17:35.411Z,3.50
2023-08-15T18:20:22.704Z,3.80
2023-08-15T18:23:10.389Z,3.33
2023-08-15T18:26:00.232Z,3.22
2023-08-15T18:38:50.944Z,3.45
2023-08-15T18:41:37.404Z,3.55
2023-08-15T18:44:22.994Z,3.60
2023-08-15T18:47:09.188Z,3.53
2023-08-15T18:49:54.826Z,4.00
2023-08-15T18:52:40.600Z,3.72
2023-08-15T18:55:26.528Z,3.60
2023-08-15T18:58:12.549Z,3.90
2023-08-15T19:00:58.256Z,3.80
2023-08-15T19:03:44.874Z,3.83
2023-08-15T19:06:30.805Z,4.38
2023-08-15T19:09:17.970Z,4.70
2023-08-15T19:12:07.487Z,3.88
2023-08-15T19:14:57.932Z,4.00
2023-08-15T19:17:44.391Z,4.05
2023-08-15T19:20:30.613Z,4.13
2023-08-15T19:23:16.897Z,3.88
2023-08-15T19:26:02.855Z,3.75
2023-08-15T19:28:50.322Z,4.20
2023-08-15T19:31:40.007Z,3.33
2023-08-15T19:34:25.868Z,3.80
2023-08-15T19:37:17.391Z,4.00
2023-08-15T19:40:10.150Z,4.10
2023-08-15T19:42:56.297Z,3.92
2023-08-15T19:45:41.917Z,4.13
2023-08-15T19:48:28.428Z,3.80
2023-08-15T19:51:16.772Z,3.88
2023-08-15T19:54:05.910Z,3.75
2023-08-15T19:56:52.070Z,3.90
2023-08-15T19:59:37.934Z,4.03
2023-08-15T20:02:24.723Z,3.55
2023-08-15T20:05:11.179Z,3.63
2023-08-15T20:07:57.236Z,3.85
2023-08-15T20:10:45.283Z,3.42
2023-08-15T20:13:35.605Z,3.85
2023-08-15T20:16:24.049Z,4.18
2023-08-15T20:19:11.519Z,3.90
2023-08-15T20:22:00.775Z,3.80
2023-08-15T20:24:46.493Z,3.78
2023-08-15T20:27:32.965Z,4.22
2023-08-15T20:30:19.147Z,4.07
2023-08-15T20:33:05.466Z,3.95
2023-08-15T20:35:51.675Z,3.80
2023-08-15T20:38:37.834Z,3.80
2023-08-15T20:41:23.806Z,3.65
2023-08-15T20:44:10.151Z,3.78
2023-08-15T20:46:56.468Z,3.83
2023-08-15T20:49:46.727Z,3.70
2023-08-15T20:52:32.711Z,4.20
2023-08-15T20:55:21.290Z,4.22
2023-08-15T20:58:07.065Z,3.80
2023-08-15T21:00:53.228Z,3.92
2023-08-15T21:03:42.810Z,3.75
2023-08-15T21:06:28.724Z,3.85
2023-08-15T21:09:14.138Z,3.60
2023-08-15T21:12:00.642Z,4.05
2023-08-15T21:14:49.568Z,3.97
2023-08-15T21:17:36.362Z,4.05
2023-08-15T21:20:22.407Z,3.63
2023-08-15T21:23:14.806Z,3.60
2023-08-15T21:26:00.918Z,3.83
2023-08-15T21:28:47.134Z,4.05
2023-08-15T21:31:33.565Z,3.55
2023-08-15T21:34:19.321Z,3.95
2023-08-15T21:37:05.153Z,4.13
2023-08-15T21:39:51.013Z,3.85
2023-08-15T21:42:37.266Z,4.07
2023-08-15T21:45:22.831Z,3.80
2023-08-15T21:48:09.962Z,3.55
2023-08-15T21:50:56.266Z,3.83
2023-08-15T21:53:42.275Z,4.32
2023-08-15T21:56:31.107Z,4.05
2023-08-15T21:59:17.862Z,3.95
2023-08-15T22:02:03.655Z,4.45
2023-08-15T22:04:49.660Z,3.53
2023-08-15T22:07:36.056Z,3.83
2023-08-15T22:10:23.575Z,4.20
2023-08-15T22:13:09.526Z,4.30
2023-08-15T22:15:55.837Z,3.63
2023-08-15T22:18:42.301Z,3.72
2023-08-15T22:21:28.279Z,4.20
2023-08-15T22:24:13.941Z,3.33
2023-08-15T22:27:00.141Z,3.67
2023-08-15T22:29:45.913Z,3.55
2023-08-15T22:32:32.044Z,3.70
2023-08-15T22:35:18.213Z,3.95
2023-08-15T22:38:04.708Z,4.05
2023-08-15T22:40:51.228Z,4.00
2023-08-15T22:43:37.403Z,3.75
2023-08-15T22:46:26.507Z,4.00
2023-08-15T22:49:12.156Z,3.75
2023-08-15T22:51:58.105Z,3.72
2023-08-15T22:54:44.025Z,3.95
2023-08-15T22:57:29.744Z,3.60
2023-08-15T23:00:16.236Z,3.88
2023-08-15T23:03:01.925Z,3.63
2023-08-15T23:05:48.725Z,3.33
2023-08-15T23:08:35.122Z,3.40
2023-08-15T23:11:21.024Z,4.47
2023-08-15T23:14:07.304Z,3.47
2023-08-15T23:16:53.204Z,3.40
2023-08-15T23:19:39.232Z,3.00
2023-08-15T23:22:24.630Z,3.35
2023-08-15T23:25:11.430Z,3.40
2023-08-15T23:28:00.215Z,3.25
2023-08-15T23:30:46.182Z,3.80
2023-08-15T23:33:32.245Z,3.22
2023-08-15T23:36:18.318Z,3.08
2023-08-15T23:39:09.306Z,3.15
2023-08-15T23:41:55.328Z,3.45
2023-08-15T23:44:40.763Z,3.53
2023-08-15T23:47:27.284Z,3.35
2023-08-15T23:50:14.032Z,3.65
2023-08-15T23:53:02.537Z,3.83
2023-08-15T23:55:48.850Z,3.53
2023-08-15T23:58:34.881Z,4.05
